Seattle, Washington
Traffic Map
Current Weather Conditions
Seattle, Washington
Clear
Clear
39°
Feels Like: 39°
Wind Chill: 39° Ceiling: Unl
Heat Index: 39° Visibility: 9mi
Dew Point: 35° Wind: 0mph
Humidity: 86% Direction: ° ()
Pressure: 30.33in Gusts: 0mph
Raw Report DataKBFI 301153Z 00000KT 9SM CLR 04/02 A3033 RMK AO2 SLP269 T00390017 10078 20033 50008
Traffic Incident Summary
Active as of:
Severity:
Category:
InformationThere was an issue retrieving the traffic information for this location. Please try a different location or try again shortly.
Advertisements
Track Severe Weather on mobile